createdAt,value
2017-08-06T00:00:39.278Z,12.57
2017-08-06T00:03:07.261Z,14.17
2017-08-06T00:05:37.842Z,13.13
2017-08-06T00:08:07.081Z,19.83
2017-08-06T00:10:34.834Z,14.87
2017-08-06T00:13:04.633Z,15.53
2017-08-06T00:15:31.117Z,14.73
2017-08-06T00:18:05.319Z,14.47
2017-08-06T00:20:33.811Z,19.37
2017-08-06T00:23:01.461Z,19.80
2017-08-06T00:25:29.891Z,18.70
2017-08-06T00:27:59.261Z,19.43
2017-08-06T00:30:33.962Z,12.93
2017-08-06T00:33:01.990Z,11.90
2017-08-06T00:35:28.769Z,14.07
2017-08-06T00:37:58.138Z,17.33
2017-08-06T00:40:34.549Z,19.80
2017-08-06T00:43:03.734Z,15.47
2017-08-06T00:45:32.637Z,14.47
2017-08-06T00:48:00.181Z,12.70
2017-08-06T00:50:27.351Z,13.33
2017-08-06T00:52:55.580Z,12.03
2017-08-06T00:55:22.487Z,16.07
2017-08-06T00:57:49.193Z,12.10
2017-08-06T01:00:16.787Z,15.30
2017-08-06T01:02:43.802Z,12.43
2017-08-06T01:05:11.400Z,13.33
2017-08-06T01:07:37.991Z,14.60
2017-08-06T01:10:04.558Z,12.13
2017-08-06T01:12:31.170Z,11.07
2017-08-06T01:15:02.556Z,12.77
2017-08-06T01:17:29.169Z,15.63
2017-08-06T01:19:55.785Z,12.30
2017-08-06T01:22:22.381Z,12.60
2017-08-06T01:24:49.069Z,13.73
2017-08-06T01:27:15.650Z,11.53
2017-08-06T01:29:42.290Z,11.47
2017-08-06T01:32:09.889Z,10.47
2017-08-06T01:34:36.509Z,10.33
2017-08-06T01:37:03.271Z,9.33
2017-08-06T01:39:30.011Z,10.57
2017-08-06T01:41:56.652Z,9.20
2017-08-06T01:44:24.427Z,8.37
2017-08-06T01:46:50.948Z,13.00
2017-08-06T01:49:17.649Z,8.57
2017-08-06T01:51:44.335Z,12.20
2017-08-06T01:54:10.846Z,12.80
2017-08-06T01:56:37.369Z,10.30
2017-08-06T01:59:04.613Z,12.50
2017-08-06T02:01:31.189Z,8.93
2017-08-06T02:03:57.773Z,8.10
2017-08-06T02:06:24.369Z,10.53
2017-08-06T02:08:54.892Z,9.97
2017-08-06T02:11:21.502Z,9.37
2017-08-06T02:13:47.993Z,8.63
2017-08-06T02:16:14.545Z,8.40
2017-08-06T02:18:41.110Z,8.13
2017-08-06T02:21:07.660Z,8.10
2017-08-06T02:23:34.419Z,7.90
2017-08-06T02:26:00.986Z,7.93
2017-08-06T02:28:27.572Z,6.30
2017-08-06T02:30:54.195Z,9.73
2017-08-06T02:33:21.518Z,6.47
2017-08-06T02:35:48.140Z,5.87
2017-08-06T02:38:14.764Z,6.85
2017-08-06T02:40:41.388Z,9.13
2017-08-06T02:43:07.981Z,7.90
2017-08-06T02:45:34.533Z,6.30
2017-08-06T02:48:01.118Z,9.70
2017-08-06T02:50:27.716Z,7.40
2017-08-06T02:52:54.274Z,10.40
2017-08-06T02:55:20.919Z,6.83
2017-08-06T02:57:47.597Z,7.53
2017-08-06T03:00:14.185Z,7.43
2017-08-06T03:02:40.746Z,9.02
2017-08-06T03:05:07.381Z,10.25
2017-08-06T03:07:34.727Z,13.40
2017-08-06T03:10:01.284Z,13.50
2017-08-06T03:12:27.897Z,11.63
2017-08-06T03:14:54.469Z,14.43
2017-08-06T03:17:21.060Z,17.90
2017-08-06T03:19:47.656Z,12.35
2017-08-06T03:22:14.288Z,14.70
2017-08-06T03:24:40.867Z,13.60
2017-08-06T03:27:07.461Z,13.10
2017-08-06T03:29:33.997Z,15.30
2017-08-06T03:32:00.596Z,16.80
2017-08-06T03:34:27.170Z,15.13
2017-08-06T03:36:53.804Z,16.37
2017-08-06T03:39:20.388Z,17.12
2017-08-06T03:41:46.998Z,14.75
2017-08-06T03:44:14.321Z,17.80
2017-08-06T03:46:40.942Z,14.50
2017-08-06T03:49:07.552Z,16.57
2017-08-06T03:51:34.152Z,14.10
2017-08-06T03:54:00.792Z,16.42
2017-08-06T03:56:28.149Z,19.73
2017-08-06T03:58:54.746Z,13.30
2017-08-06T04:01:21.337Z,15.57
2017-08-06T04:03:48.452Z,12.85
2017-08-06T04:06:15.834Z,14.73
2017-08-06T04:08:42.470Z,19.05
2017-08-06T04:11:09.155Z,17.65
2017-08-06T04:13:35.721Z,17.12
2017-08-06T04:16:02.502Z,13.13
2017-08-06T04:18:29.690Z,15.25
2017-08-06T04:20:56.255Z,18.33
2017-08-06T04:23:22.843Z,16.48
2017-08-06T04:25:49.382Z,15.15
2017-08-06T04:28:15.935Z,16.08
2017-08-06T04:30:42.442Z,16.40
2017-08-06T04:33:08.992Z,15.40
2017-08-06T04:35:35.591Z,18.95
2017-08-06T04:38:02.183Z,17.52
2017-08-06T04:40:28.945Z,16.02
2017-08-06T04:42:56.253Z,15.50
2017-08-06T04:45:23.021Z,14.95
2017-08-06T04:47:49.640Z,13.27
2017-08-06T04:50:16.939Z,17.92
2017-08-06T04:52:43.519Z,17.37
2017-08-06T04:55:10.098Z,20.03
2017-08-06T04:57:37.453Z,12.17
2017-08-06T05:00:03.996Z,19.37
2017-08-06T05:02:31.160Z,12.57
2017-08-06T05:04:57.712Z,16.87
2017-08-06T05:07:24.292Z,18.87
2017-08-06T05:09:50.856Z,16.83
2017-08-06T05:12:17.308Z,15.93
2017-08-06T05:14:43.871Z,21.40
2017-08-06T05:17:10.460Z,20.37
2017-08-06T05:19:37.009Z,15.80
2017-08-06T05:22:03.572Z,18.00
2017-08-06T05:24:30.873Z,16.00
2017-08-06T05:26:57.451Z,18.07
2017-08-06T05:29:24.045Z,16.63
2017-08-06T05:31:50.600Z,16.73
2017-08-06T05:34:17.193Z,16.40
2017-08-06T05:36:43.958Z,15.90
2017-08-06T05:39:10.525Z,17.20
2017-08-06T05:41:37.004Z,16.33
2017-08-06T05:44:03.587Z,18.40
2017-08-06T05:46:30.171Z,17.13
2017-08-06T05:48:56.744Z,15.50
2017-08-06T05:51:24.040Z,17.63
2017-08-06T05:53:50.604Z,17.70
2017-08-06T05:56:17.882Z,18.20
2017-08-06T05:58:44.542Z,20.13
2017-08-06T06:01:11.123Z,15.13
2017-08-06T06:03:37.672Z,19.97
2017-08-06T06:06:04.268Z,18.03
2017-08-06T06:08:30.837Z,18.00
2017-08-06T06:10:57.552Z,19.27
2017-08-06T06:13:24.121Z,18.20
2017-08-06T06:15:50.677Z,18.47
2017-08-06T06:18:17.203Z,18.37
2017-08-06T06:20:43.758Z,17.30
2017-08-06T06:23:10.676Z,17.40
2017-08-06T06:25:37.259Z,22.10
2017-08-06T06:28:03.812Z,18.53
2017-08-06T06:30:32.157Z,17.07
2017-08-06T06:32:58.776Z,20.37
2017-08-06T06:35:25.473Z,22.67
2017-08-06T06:37:52.061Z,21.87
2017-08-06T06:40:18.671Z,17.57
2017-08-06T06:42:45.304Z,25.17
2017-08-06T06:45:11.887Z,22.87
2017-08-06T06:47:38.472Z,21.87
2017-08-06T06:50:05.804Z,17.70
2017-08-06T06:52:32.365Z,21.97
2017-08-06T06:54:58.988Z,21.70
2017-08-06T06:57:25.565Z,24.20
2017-08-06T06:59:52.895Z,19.50
2017-08-06T07:02:19.489Z,23.23
2017-08-06T07:04:46.062Z,19.70
2017-08-06T07:07:13.008Z,25.57
2017-08-06T07:09:39.464Z,26.57
2017-08-06T07:12:06.081Z,23.23
2017-08-06T07:14:32.644Z,21.03
2017-08-06T07:16:59.227Z,21.13
2017-08-06T07:19:26.571Z,22.70
2017-08-06T07:21:53.131Z,20.37
2017-08-06T07:24:19.574Z,22.60
2017-08-06T07:26:46.123Z,18.93
2017-08-06T07:29:13.149Z,17.90
2017-08-06T07:31:39.691Z,14.57
2017-08-06T07:34:06.338Z,14.47
2017-08-06T07:36:33.244Z,15.73
2017-08-06T07:38:59.854Z,17.33
2017-08-06T07:41:26.501Z,14.90
2017-08-06T07:43:53.065Z,16.43
2017-08-06T07:46:20.254Z,17.03
2017-08-06T07:48:46.849Z,15.53
2017-08-06T07:51:14.234Z,13.57
2017-08-06T07:53:40.858Z,10.50
2017-08-06T07:56:07.456Z,9.60
2017-08-06T07:58:34.663Z,11.30
2017-08-06T08:01:01.270Z,10.17
2017-08-06T08:03:27.980Z,11.00
2017-08-06T08:05:54.661Z,10.83
2017-08-06T08:08:21.440Z,11.33
2017-08-06T08:10:48.053Z,9.20
2017-08-06T08:13:14.924Z,10.20
2017-08-06T08:15:41.520Z,7.83
2017-08-06T08:18:08.156Z,6.70
2017-08-06T08:20:34.921Z,10.13
2017-08-06T08:23:01.645Z,6.70
2017-08-06T08:25:28.232Z,7.93
2017-08-06T08:27:54.825Z,6.03
2017-08-06T08:30:21.382Z,5.50
2017-08-06T08:32:47.968Z,5.17
2017-08-06T08:35:14.999Z,4.83
2017-08-06T08:37:42.309Z,5.80
2017-08-06T08:40:09.051Z,4.33
2017-08-06T08:42:36.081Z,4.80
2017-08-06T08:45:02.773Z,4.87
2017-08-06T08:47:29.396Z,4.67
2017-08-06T08:49:56.044Z,5.53
2017-08-06T08:52:22.528Z,3.83
2017-08-06T08:54:49.157Z,3.80
2017-08-06T08:57:16.484Z,3.60
2017-08-06T08:59:43.971Z,4.43
2017-08-06T09:02:10.669Z,5.97
2017-08-06T09:04:37.228Z,4.90
2017-08-06T09:07:03.846Z,3.60
2017-08-06T09:09:33.413Z,5.23
2017-08-06T09:12:00.879Z,4.37
2017-08-06T09:14:27.525Z,5.00
2017-08-06T09:16:54.172Z,3.83
2017-08-06T09:19:20.876Z,4.17
2017-08-06T09:21:47.498Z,4.90
2017-08-06T09:26:45.714Z,4.57
2017-08-06T09:29:12.360Z,3.80
2017-08-06T09:31:39.005Z,4.00
2017-08-06T09:34:05.626Z,4.33
2017-08-06T09:36:32.289Z,3.53
2017-08-06T09:38:59.240Z,5.23
2017-08-06T09:41:25.864Z,3.80
2017-08-06T09:43:52.454Z,3.97
2017-08-06T09:46:19.031Z,4.17
2017-08-06T09:48:45.629Z,6.97
2017-08-06T09:51:12.769Z,2.70
2017-08-06T09:53:39.453Z,5.83
2017-08-06T09:56:07.407Z,3.10
2017-08-06T09:58:33.997Z,3.50
2017-08-06T10:01:01.829Z,4.00
2017-08-06T10:03:28.437Z,3.10
2017-08-06T10:05:55.659Z,3.87
2017-08-06T10:08:22.302Z,3.87
2017-08-06T10:10:49.256Z,3.30
2017-08-06T10:13:15.917Z,3.23
2017-08-06T10:15:42.480Z,4.50
2017-08-06T10:18:09.048Z,4.83
2017-08-06T10:20:35.615Z,3.50
2017-08-06T10:23:02.258Z,3.90
2017-08-06T10:25:28.823Z,4.30
2017-08-06T10:27:56.116Z,6.07
2017-08-06T10:30:22.715Z,3.90
2017-08-06T10:32:49.297Z,3.63
2017-08-06T10:35:15.853Z,4.33
2017-08-06T10:37:42.456Z,4.10
2017-08-06T10:40:09.011Z,4.60
2017-08-06T10:42:35.547Z,3.07
2017-08-06T10:45:02.144Z,5.30
2017-08-06T10:47:28.699Z,3.77
2017-08-06T10:49:55.239Z,4.23
2017-08-06T10:52:23.404Z,4.93
2017-08-06T10:54:49.992Z,6.40
2017-08-06T10:57:16.553Z,3.60
2017-08-06T10:59:43.623Z,4.13
2017-08-06T11:02:10.184Z,4.37
2017-08-06T11:04:37.444Z,3.73
2017-08-06T11:07:04.064Z,4.10
2017-08-06T11:09:30.555Z,4.17
2017-08-06T11:11:57.225Z,5.60
2017-08-06T11:14:23.808Z,5.30
2017-08-06T11:16:50.453Z,5.37
2017-08-06T11:19:17.061Z,6.63
2017-08-06T11:21:43.660Z,4.73
2017-08-06T11:24:10.284Z,5.83
2017-08-06T11:26:36.934Z,4.17
2017-08-06T11:29:03.718Z,5.40
2017-08-06T11:31:30.353Z,4.10
2017-08-06T11:33:56.930Z,3.90
2017-08-06T11:36:23.509Z,5.97
2017-08-06T11:38:51.567Z,4.77
2017-08-06T11:41:18.193Z,5.43
2017-08-06T11:43:44.786Z,4.20
2017-08-06T11:46:11.497Z,8.10
2017-08-06T11:48:37.847Z,3.27
2017-08-06T11:51:04.280Z,3.93
2017-08-06T11:53:30.588Z,4.20
2017-08-06T11:55:56.947Z,4.30
2017-08-06T11:58:23.283Z,4.23
2017-08-06T12:00:49.666Z,4.73
2017-08-06T12:03:16.796Z,3.47
2017-08-06T12:05:43.147Z,4.23
2017-08-06T12:08:09.534Z,3.70
2017-08-06T12:10:35.865Z,4.20
2017-08-06T12:13:02.234Z,3.33
2017-08-06T12:15:28.682Z,5.77
2017-08-06T12:17:55.008Z,3.73
2017-08-06T12:20:21.360Z,3.73
2017-08-06T12:22:47.787Z,3.47
2017-08-06T12:25:14.142Z,4.57
2017-08-06T12:27:40.459Z,3.30
2017-08-06T12:30:06.804Z,3.43
2017-08-06T12:32:33.132Z,3.00
2017-08-06T12:34:59.486Z,2.70
2017-08-06T12:37:27.029Z,3.20
2017-08-06T12:39:53.633Z,3.20
2017-08-06T12:42:19.933Z,4.13
2017-08-06T12:44:46.279Z,2.90
2017-08-06T12:47:12.605Z,3.27
2017-08-06T12:49:38.932Z,3.87
2017-08-06T12:52:05.245Z,3.30
2017-08-06T12:54:31.599Z,3.67
2017-08-06T12:56:57.921Z,3.50
2017-08-06T12:59:24.261Z,3.30
2017-08-06T13:01:50.650Z,3.73
2017-08-06T13:04:20.375Z,3.17
2017-08-06T13:06:46.709Z,2.33
2017-08-06T13:09:13.044Z,2.73
2017-08-06T13:11:39.394Z,2.50
2017-08-06T13:14:05.773Z,5.43
2017-08-06T13:16:32.092Z,7.07
2017-08-06T13:19:04.701Z,3.90
2017-08-06T13:21:31.758Z,2.73
2017-08-06T13:23:58.100Z,2.77
2017-08-06T13:26:24.435Z,2.33
2017-08-06T13:28:50.784Z,2.80
2017-08-06T13:31:17.836Z,2.97
2017-08-06T13:33:44.167Z,2.73
2017-08-06T13:36:10.575Z,2.33
2017-08-06T13:38:36.929Z,6.10
2017-08-06T13:41:03.336Z,3.73
2017-08-06T13:43:29.718Z,2.80
2017-08-06T13:45:56.101Z,2.33
2017-08-06T13:48:22.449Z,2.97
2017-08-06T13:50:54.180Z,2.00
2017-08-06T13:53:20.512Z,2.23
2017-08-06T13:55:46.816Z,2.60
2017-08-06T13:58:13.177Z,2.23
2017-08-06T14:00:40.269Z,2.70
2017-08-06T14:03:06.624Z,2.43
2017-08-06T14:05:33.012Z,2.97
2017-08-06T14:07:59.365Z,2.13
2017-08-06T14:10:25.726Z,2.63
2017-08-06T14:12:56.061Z,5.40
2017-08-06T14:15:22.599Z,2.60
2017-08-06T14:17:48.967Z,2.83
2017-08-06T14:20:15.360Z,2.57
2017-08-06T14:22:42.435Z,2.07
2017-08-06T14:25:12.323Z,3.47
2017-08-06T14:27:38.661Z,4.80
2017-08-06T14:30:04.952Z,2.03
2017-08-06T14:32:31.306Z,2.60
2017-08-06T14:34:57.609Z,2.20
2017-08-06T14:37:23.961Z,2.07
2017-08-06T14:39:51.025Z,2.70
2017-08-06T14:42:17.343Z,2.07
2017-08-06T14:44:43.718Z,2.07
2017-08-06T14:47:10.015Z,2.10
2017-08-06T14:49:39.713Z,2.67
2017-08-06T14:52:06.131Z,2.57
2017-08-06T14:54:32.457Z,2.00
2017-08-06T14:56:58.991Z,1.87
2017-08-06T14:59:25.311Z,2.63
2017-08-06T15:01:51.621Z,1.97
2017-08-06T15:04:24.467Z,2.03
2017-08-06T15:06:50.794Z,1.67
2017-08-06T15:09:17.121Z,2.13
2017-08-06T15:11:44.177Z,3.20
2017-08-06T15:14:10.516Z,2.30
2017-08-06T15:16:36.869Z,3.13
2017-08-06T15:19:05.532Z,3.83
2017-08-06T15:21:31.921Z,2.20
2017-08-06T15:23:58.255Z,1.57
2017-08-06T15:26:24.584Z,1.90
2017-08-06T15:28:50.951Z,2.30
2017-08-06T15:31:17.285Z,1.80
2017-08-06T15:33:48.697Z,3.07
2017-08-06T15:36:15.034Z,4.10
2017-08-06T15:38:41.372Z,2.10
2017-08-06T15:41:07.692Z,3.20
2017-08-06T15:43:34.012Z,2.50
2017-08-06T15:46:00.341Z,2.33
2017-08-06T15:48:33.496Z,1.90
2017-08-06T15:50:59.853Z,1.80
2017-08-06T15:53:26.229Z,2.30
2017-08-06T15:55:52.644Z,2.30
2017-08-06T15:58:18.993Z,1.93
2017-08-06T16:00:45.332Z,2.50
2017-08-06T16:03:11.730Z,2.00
2017-08-06T16:05:38.058Z,5.63
2017-08-06T16:08:04.774Z,3.90
2017-08-06T16:10:31.103Z,2.40
2017-08-06T16:12:57.449Z,2.83
2017-08-06T16:15:24.548Z,3.60
2017-08-06T16:17:50.864Z,4.50
2017-08-06T16:20:17.197Z,3.63
2017-08-06T16:22:43.608Z,2.90
2017-08-06T16:25:09.928Z,2.73
2017-08-06T16:27:36.333Z,3.10
2017-08-06T16:30:03.372Z,2.43
2017-08-06T16:32:29.705Z,2.17
2017-08-06T16:34:56.050Z,2.53
2017-08-06T16:37:22.388Z,6.27
2017-08-06T16:39:48.714Z,5.70
2017-08-06T16:42:15.182Z,2.47
2017-08-06T16:44:41.598Z,2.70
2017-08-06T16:47:07.919Z,2.90
2017-08-06T16:49:34.245Z,6.50
2017-08-06T16:52:01.327Z,7.83
2017-08-06T16:54:27.713Z,4.43
2017-08-06T16:56:59.344Z,3.50
2017-08-06T16:59:27.516Z,3.37
2017-08-06T17:01:54.081Z,5.57
2017-08-06T17:04:21.049Z,6.50
2017-08-06T17:06:48.879Z,3.90
2017-08-06T17:09:15.251Z,2.40
2017-08-06T17:11:42.177Z,3.07
2017-08-06T17:14:12.513Z,2.47
2017-08-06T17:16:40.077Z,2.33
2017-08-06T17:19:06.570Z,2.27
2017-08-06T17:21:33.082Z,2.10
2017-08-06T17:23:59.586Z,3.70
2017-08-06T17:26:26.084Z,3.03
2017-08-06T17:28:52.421Z,4.60
2017-08-06T17:31:18.877Z,3.50
2017-08-06T17:33:45.390Z,4.30
2017-08-06T17:36:12.565Z,3.10
2017-08-06T17:38:39.204Z,2.63
2017-08-06T17:41:05.679Z,2.00
2017-08-06T17:43:32.081Z,3.90
2017-08-06T17:45:58.437Z,3.50
2017-08-06T17:48:24.759Z,2.60
2017-08-06T17:50:51.244Z,2.87
2017-08-06T17:53:17.672Z,2.77
2017-08-06T17:55:44.017Z,3.50
2017-08-06T17:58:10.540Z,2.90
2017-08-06T18:00:37.073Z,2.67
2017-08-06T18:03:03.696Z,5.63
2017-08-06T18:05:30.554Z,3.53
2017-08-06T18:07:56.906Z,5.43
2017-08-06T18:10:23.665Z,7.87
2017-08-06T18:12:50.058Z,4.83
2017-08-06T18:15:20.783Z,2.83
2017-08-06T18:17:47.594Z,3.57
2017-08-06T18:20:14.031Z,3.07
2017-08-06T18:22:40.456Z,3.07
2017-08-06T18:25:07.191Z,2.90
2017-08-06T18:27:33.738Z,3.03
2017-08-06T18:30:00.091Z,2.83
2017-08-06T18:32:26.565Z,4.97
2017-08-06T18:34:53.204Z,2.83
2017-08-06T18:37:19.685Z,3.77
2017-08-06T18:39:47.586Z,7.37
2017-08-06T18:42:14.885Z,6.23
2017-08-06T18:44:46.962Z,4.77
2017-08-06T18:47:13.379Z,6.93
2017-08-06T18:49:40.301Z,3.90
2017-08-06T18:52:06.669Z,4.43
2017-08-06T18:54:33.849Z,3.40
2017-08-06T18:57:04.186Z,3.23
2017-08-06T18:59:32.228Z,4.50
2017-08-06T19:02:06.352Z,7.73
2017-08-06T19:04:32.788Z,3.33
2017-08-06T19:06:59.989Z,3.20
2017-08-06T19:09:27.547Z,5.00
2017-08-06T19:11:54.156Z,4.93
2017-08-06T19:14:20.746Z,4.70
2017-08-06T19:16:47.403Z,5.80
2017-08-06T19:19:16.036Z,4.70
2017-08-06T19:21:42.636Z,3.73
2017-08-06T19:24:09.189Z,4.97
2017-08-06T19:26:35.545Z,3.70
2017-08-06T19:29:01.914Z,8.20
2017-08-06T19:31:28.269Z,4.77
2017-08-06T19:33:54.674Z,3.80
2017-08-06T19:36:22.169Z,5.43
2017-08-06T19:38:48.498Z,7.30
2017-08-06T19:41:15.020Z,4.10
2017-08-06T19:43:41.708Z,4.40
2017-08-06T19:46:08.988Z,7.50
2017-08-06T19:48:35.350Z,4.30
2017-08-06T19:51:01.784Z,4.00
2017-08-06T19:53:28.901Z,4.30
2017-08-06T19:55:55.437Z,5.23
2017-08-06T19:58:21.783Z,4.10
2017-08-06T20:00:48.212Z,3.93
2017-08-06T20:03:15.408Z,4.30
2017-08-06T20:05:42.759Z,4.40
2017-08-06T20:08:10.000Z,6.60
2017-08-06T20:10:36.406Z,5.40
2017-08-06T20:13:03.483Z,4.47
2017-08-06T20:15:30.200Z,5.30
2017-08-06T20:17:57.471Z,4.10
2017-08-06T20:20:24.098Z,9.80
2017-08-06T20:22:50.441Z,4.93
2017-08-06T20:25:16.790Z,5.43
2017-08-06T20:27:43.488Z,4.43
2017-08-06T20:30:10.545Z,4.37
2017-08-06T20:32:36.904Z,4.40
2017-08-06T20:35:03.286Z,5.80
2017-08-06T20:37:29.625Z,4.53
2017-08-06T20:39:55.986Z,5.90
2017-08-06T20:42:22.400Z,5.93
2017-08-06T20:44:48.742Z,5.70
2017-08-06T20:47:15.050Z,4.60
2017-08-06T20:49:41.451Z,4.47
2017-08-06T20:52:07.857Z,4.27
2017-08-06T20:54:39.179Z,4.90
2017-08-06T20:57:06.473Z,6.40
2017-08-06T20:59:32.778Z,5.83
2017-08-06T21:01:59.117Z,6.53
2017-08-06T21:04:25.473Z,5.50
2017-08-06T21:06:51.927Z,5.00
2017-08-06T21:09:18.299Z,5.17
2017-08-06T21:11:44.869Z,10.17
2017-08-06T21:14:11.234Z,4.50
2017-08-06T21:16:38.332Z,5.30
2017-08-06T21:19:04.885Z,4.63
2017-08-06T21:21:32.555Z,7.73
2017-08-06T21:23:59.055Z,5.93
2017-08-06T21:26:25.645Z,8.93
2017-08-06T21:28:52.707Z,4.30
2017-08-06T21:31:20.367Z,5.30
2017-08-06T21:33:47.584Z,8.07
2017-08-06T21:36:14.297Z,6.33
2017-08-06T21:38:41.759Z,4.10
2017-08-06T21:41:08.379Z,4.57
2017-08-06T21:43:35.236Z,6.90
2017-08-06T21:46:02.788Z,5.63
2017-08-06T21:48:30.733Z,4.90
2017-08-06T21:50:57.390Z,5.10
2017-08-06T21:53:24.125Z,5.50
2017-08-06T21:55:52.402Z,6.47
2017-08-06T21:58:19.071Z,5.60
2017-08-06T22:00:45.533Z,5.57
2017-08-06T22:03:11.860Z,5.50
2017-08-06T22:05:38.262Z,5.20
2017-08-06T22:08:05.267Z,5.47
2017-08-06T22:10:32.053Z,6.20
2017-08-06T22:12:59.692Z,5.53
2017-08-06T22:15:26.554Z,5.90
2017-08-06T22:17:53.177Z,7.63
2017-08-06T22:20:19.825Z,6.37
2017-08-06T22:22:47.168Z,6.13
2017-08-06T22:25:14.264Z,6.90
2017-08-06T22:27:40.601Z,9.33
2017-08-06T22:30:06.973Z,6.13
2017-08-06T22:32:34.088Z,7.17
2017-08-06T22:35:00.411Z,6.77
2017-08-06T22:37:26.732Z,6.50
2017-08-06T22:39:57.948Z,6.97
2017-08-06T22:42:24.634Z,7.23
2017-08-06T22:44:51.303Z,7.90
2017-08-06T22:47:33.270Z,6.90
2017-08-06T22:50:01.006Z,7.47
2017-08-06T22:52:34.656Z,8.40
2017-08-06T22:55:01.015Z,8.20
2017-08-06T22:57:27.335Z,6.80
2017-08-06T22:59:53.819Z,8.13
2017-08-06T23:02:20.140Z,9.80
2017-08-06T23:04:47.222Z,8.30
2017-08-06T23:07:13.524Z,8.50
2017-08-06T23:09:39.845Z,7.83
2017-08-06T23:12:06.166Z,8.47
2017-08-06T23:14:32.477Z,9.23
2017-08-06T23:16:58.876Z,8.20
2017-08-06T23:19:25.232Z,7.53
2017-08-06T23:21:51.554Z,7.57
2017-08-06T23:24:17.869Z,8.37
2017-08-06T23:26:44.208Z,8.90
2017-08-06T23:29:10.529Z,7.70
2017-08-06T23:31:41.414Z,8.20
2017-08-06T23:34:07.761Z,8.27
2017-08-06T23:39:06.001Z,8.50
2017-08-06T23:41:32.339Z,7.70
2017-08-06T23:43:59.499Z,7.93
2017-08-06T23:46:25.997Z,12.77
2017-08-06T23:48:52.316Z,6.73
2017-08-06T23:51:18.646Z,7.07
2017-08-06T23:53:44.992Z,7.78
2017-08-06T23:56:12.068Z,7.75
2017-08-06T23:58:38.396Z,7.45
